Time;durP1;ratioP1;P1;durP2;ratioP2;P2;SDS_P1;SDS_P2;PMS_P1;PMS_P2;Temp;Humidity;BMP_temperature;BMP_pressure;BME280_temperature;BME280_humidity;BME280_pressure;Samples;Min_cycle;Max_cycle;Signal;HPM_P1;HPM_P2
2023/03/12 00:02:07;;;;;;;21.97;14.30;;;-4.30;99.90;;;;;;5093318;28;20233;-73
2023/03/12 00:04:35;;;;;;;22.20;13.30;;;-4.30;99.90;;;;;;5093519;28;20228;-73
2023/03/12 00:07:01;;;;;;;22.50;13.13;;;-4.30;99.90;;;;;;5093414;28;20657;-72
2023/03/12 00:09:28;;;;;;;21.07;13.00;;;-4.30;99.90;;;;;;5093039;28;20265;-72
2023/03/12 00:11:54;;;;;;;23.23;13.53;;;-4.40;99.90;;;;;;5093280;28;20236;-73
2023/03/12 00:14:21;;;;;;;22.47;14.40;;;-4.40;99.90;;;;;;5093231;28;20196;-73
2023/03/12 00:16:49;;;;;;;27.70;16.20;;;-4.40;99.90;;;;;;5092972;28;20233;-72
2023/03/12 00:19:16;;;;;;;24.23;14.50;;;-4.50;99.90;;;;;;5093212;28;20192;-73
2023/03/12 00:21:42;;;;;;;20.97;14.53;;;-4.60;99.90;;;;;;5093398;28;20229;-72
2023/03/12 00:24:09;;;;;;;23.77;15.00;;;-4.60;99.90;;;;;;5093156;28;20224;-72
2023/03/12 00:26:35;;;;;;;25.43;14.10;;;-4.60;99.90;;;;;;5093080;28;20257;-72
2023/03/12 00:29:02;;;;;;;22.77;14.33;;;-4.60;99.90;;;;;;5093268;28;20228;-72
2023/03/12 00:31:31;;;;;;;26.93;14.00;;;-4.70;99.90;;;;;;5092515;28;20556;-71
2023/03/12 00:34:01;;;;;;;22.27;13.70;;;-4.50;99.90;;;;;;5093048;28;20197;-72
2023/03/12 00:36:30;;;;;;;21.63;13.80;;;-4.50;99.90;;;;;;5093119;28;20232;-72
2023/03/12 00:38:58;;;;;;;22.47;15.03;;;-4.60;99.90;;;;;;5093061;28;20249;-72
2023/03/12 00:41:26;;;;;;;22.83;14.27;;;-4.70;99.90;;;;;;5092823;28;20231;-72
2023/03/12 00:43:53;;;;;;;26.63;15.50;;;-4.50;99.90;;;;;;5092954;28;20667;-72
2023/03/12 00:46:20;;;;;;;27.50;16.30;;;-4.50;99.90;;;;;;5092960;28;20251;-72
2023/03/12 00:48:47;;;;;;;26.73;14.73;;;-4.50;99.90;;;;;;5093053;28;20228;-72
2023/03/12 00:51:15;;;;;;;22.27;15.27;;;-4.50;99.90;;;;;;5092937;28;20205;-72
2023/03/12 00:53:41;;;;;;;22.60;14.10;;;-4.50;99.90;;;;;;5092812;28;20202;-72
2023/03/12 00:56:08;;;;;;;20.43;14.10;;;-4.60;99.90;;;;;;5092700;28;20668;-72
2023/03/12 00:58:35;;;;;;;21.07;13.30;;;-4.50;99.90;;;;;;5092861;28;20197;-72
2023/03/12 01:01:02;;;;;;;25.57;14.83;;;-4.50;99.90;;;;;;5092927;28;20249;-72
2023/03/12 01:03:28;;;;;;;23.67;15.00;;;-4.50;99.90;;;;;;5093065;28;20196;-72
2023/03/12 01:05:55;;;;;;;21.93;14.20;;;-4.40;99.90;;;;;;5092605;28;20203;-72
2023/03/12 01:08:24;;;;;;;21.20;13.13;;;-4.50;99.90;;;;;;5092735;28;20738;-72
2023/03/12 01:10:51;;;;;;;21.50;14.00;;;-4.60;99.90;;;;;;5092659;28;20232;-72
2023/03/12 01:13:17;;;;;;;23.97;15.07;;;-4.80;99.90;;;;;;5092940;28;20229;-72
2023/03/12 01:15:44;;;;;;;25.67;14.07;;;-4.70;99.90;;;;;;5092758;28;20235;-72
2023/03/12 01:18:11;;;;;;;23.07;14.93;;;-4.60;99.90;;;;;;5092709;28;20469;-72
2023/03/12 01:20:39;;;;;;;23.07;14.10;;;-4.50;99.90;;;;;;5092587;28;20235;-72
2023/03/12 01:23:06;;;;;;;25.00;14.73;;;-4.50;99.90;;;;;;5092497;28;20204;-72
2023/03/12 01:25:35;;;;;;;22.40;14.53;;;-4.50;99.90;;;;;;5092480;28;20224;-72
2023/03/12 01:28:02;;;;;;;25.63;14.23;;;-4.50;99.90;;;;;;5092695;28;20220;-72
2023/03/12 01:30:29;;;;;;;22.37;14.70;;;-4.60;99.90;;;;;;5092611;28;20232;-72
2023/03/12 01:32:55;;;;;;;22.13;13.43;;;-4.70;99.90;;;;;;5092624;28;20239;-72
2023/03/12 01:35:22;;;;;;;25.40;14.17;;;-4.80;99.90;;;;;;5092546;28;20310;-72
2023/03/12 01:37:48;;;;;;;23.80;14.70;;;-4.80;99.90;;;;;;5092394;28;20263;-72
2023/03/12 01:40:16;;;;;;;26.30;14.33;;;-4.90;99.90;;;;;;5092600;28;20232;-72
2023/03/12 01:42:52;;;;;;;23.30;14.73;;;-4.90;99.90;;;;;;5092636;28;20205;-72
2023/03/12 01:45:58;;;;;;;23.90;14.07;;;-5.00;99.90;;;;;;5095965;28;20686;-72
2023/03/12 01:48:27;;;;;;;22.23;13.90;;;-5.00;99.90;;;;;;5096062;28;20221;-72
2023/03/12 01:50:53;;;;;;;23.40;14.77;;;-5.00;99.90;;;;;;5096187;28;20232;-72
2023/03/12 01:53:20;;;;;;;20.80;14.53;;;-5.00;99.90;;;;;;5096053;28;20192;-72
2023/03/12 01:55:47;;;;;;;24.17;16.37;;;-4.90;99.90;;;;;;5095971;28;20225;-73
2023/03/12 01:58:15;;;;;;;27.93;15.87;;;-4.70;99.90;;;;;;5095781;28;20609;-72
2023/03/12 02:00:42;;;;;;;23.80;14.50;;;-4.70;99.90;;;;;;5095757;28;20192;-72
2023/03/12 02:03:12;;;;;;;24.20;14.60;;;-4.70;99.90;;;;;;5095664;28;20227;-72
2023/03/12 02:05:47;;;;;;;22.30;14.07;;;-4.70;99.90;;;;;;5096031;28;20279;-72
2023/03/12 02:08:16;;;;;;;25.33;14.20;;;-4.70;99.90;;;;;;5095624;28;20598;-72
2023/03/12 02:10:42;;;;;;;24.20;14.43;;;-4.70;99.90;;;;;;5095736;28;20232;-72
2023/03/12 02:13:10;;;;;;;27.10;14.80;;;-4.70;99.90;;;;;;5095565;28;20224;-72
2023/03/12 02:15:39;;;;;;;21.20;13.63;;;-4.60;99.90;;;;;;5095380;28;20206;-72
2023/03/12 02:18:07;;;;;;;23.87;13.73;;;-4.70;99.90;;;;;;5095767;28;20230;-72
2023/03/12 02:20:39;;;;;;;23.10;13.67;;;-4.60;99.90;;;;;;5095511;28;20224;-72
2023/03/12 02:23:12;;;;;;;22.70;13.83;;;-4.60;99.90;;;;;;5095373;28;20667;-72
2023/03/12 02:25:42;;;;;;;22.67;14.43;;;-4.50;99.90;;;;;;5095309;28;20235;-72
2023/03/12 02:28:12;;;;;;;22.77;14.03;;;-4.50;99.90;;;;;;5095104;28;20262;-72
2023/03/12 02:30:41;;;;;;;23.83;14.63;;;-4.40;99.90;;;;;;5095388;28;20228;-72
2023/03/12 02:33:09;;;;;;;21.47;14.40;;;-4.30;99.90;;;;;;5095235;28;20204;-72
2023/03/12 02:35:36;;;;;;;29.53;15.87;;;-4.20;99.90;;;;;;5095208;28;20229;-72
2023/03/12 02:38:03;;;;;;;26.40;16.03;;;-4.10;99.90;;;;;;5095075;28;20196;-72
2023/03/12 02:40:35;;;;;;;22.20;14.63;;;-4.10;99.90;;;;;;5094890;28;20231;-72
2023/03/12 02:43:05;;;;;;;21.30;14.70;;;-4.00;99.90;;;;;;5095028;28;20669;-72
2023/03/12 02:45:33;;;;;;;24.30;14.70;;;-4.00;99.90;;;;;;5095087;28;20226;-72
2023/03/12 02:48:00;;;;;;;29.00;15.90;;;-3.90;99.90;;;;;;5094880;28;20252;-72
2023/03/12 02:50:26;;;;;;;30.47;15.43;;;-3.90;99.90;;;;;;5095149;28;20232;-72
2023/03/12 02:52:53;;;;;;;27.50;16.10;;;-3.80;99.90;;;;;;5094764;28;20244;-71
2023/03/12 02:55:19;;;;;;;28.60;15.33;;;-3.70;99.90;;;;;;5094289;28;20237;-72
2023/03/12 02:57:46;;;;;;;26.40;15.80;;;-3.70;99.90;;;;;;5095011;28;20234;-72
2023/03/12 03:00:15;;;;;;;25.43;15.87;;;-3.60;99.90;;;;;;5094806;28;20235;-72
2023/03/12 03:02:42;;;;;;;22.17;14.93;;;-3.50;99.90;;;;;;5094674;28;20242;-72
2023/03/12 03:05:10;;;;;;;20.33;15.13;;;-3.50;99.90;;;;;;5094487;28;20232;-73
2023/03/12 03:07:37;;;;;;;22.27;15.50;;;-3.50;99.90;;;;;;5094189;28;20271;-72
2023/03/12 03:10:05;;;;;;;22.10;14.47;;;-3.50;99.90;;;;;;5094608;28;20231;-73
2023/03/12 03:12:33;;;;;;;23.60;14.70;;;-3.50;99.90;;;;;;5094409;28;20237;-72
2023/03/12 03:15:00;;;;;;;19.90;14.07;;;-3.40;99.90;;;;;;5094188;28;20665;-72
2023/03/12 03:17:28;;;;;;;21.00;13.87;;;-3.40;99.90;;;;;;5094238;28;20224;-72
2023/03/12 03:19:55;;;;;;;19.93;14.67;;;-3.40;99.90;;;;;;5094117;28;20230;-72
2023/03/12 03:22:22;;;;;;;23.17;13.90;;;-3.40;99.90;;;;;;5093983;28;20202;-72
2023/03/12 03:24:49;;;;;;;20.67;13.57;;;-3.40;99.90;;;;;;5094167;28;20230;-72
2023/03/12 03:27:16;;;;;;;23.47;13.73;;;-3.40;99.90;;;;;;5094075;28;20272;-72
2023/03/12 03:29:44;;;;;;;20.93;13.90;;;-3.40;99.90;;;;;;5093919;28;20608;-72
2023/03/12 03:32:11;;;;;;;21.13;13.97;;;-3.40;99.90;;;;;;5093822;28;20655;-73
2023/03/12 03:34:39;;;;;;;23.57;14.33;;;-3.30;99.90;;;;;;5093826;28;20238;-72
2023/03/12 03:37:06;;;;;;;19.83;13.83;;;-3.40;99.90;;;;;;5093774;28;20237;-72
2023/03/12 03:39:33;;;;;;;22.30;13.33;;;-3.30;99.90;;;;;;5093902;28;20199;-72
2023/03/12 03:42:00;;;;;;;19.90;13.57;;;-3.30;99.90;;;;;;5093656;28;20198;-72
2023/03/12 03:44:26;;;;;;;25.73;13.37;;;-3.40;99.90;;;;;;5093733;28;20196;-72
2023/03/12 03:46:54;;;;;;;19.63;12.90;;;-3.40;99.90;;;;;;5093596;28;20241;-72
2023/03/12 03:49:21;;;;;;;19.47;13.43;;;-3.40;99.90;;;;;;5093534;28;20573;-72
2023/03/12 03:51:50;;;;;;;20.60;12.67;;;-3.30;99.90;;;;;;5093723;28;20234;-72
2023/03/12 03:54:17;;;;;;;20.37;13.50;;;-3.30;99.90;;;;;;5093637;28;20202;-72
2023/03/12 03:56:44;;;;;;;21.00;13.63;;;-3.20;99.90;;;;;;5093549;28;20202;-72
2023/03/12 03:59:10;;;;;;;20.80;13.67;;;-3.20;99.90;;;;;;5093458;28;20196;-72
2023/03/12 04:01:37;;;;;;;25.97;14.27;;;-3.20;99.90;;;;;;5093242;28;20234;-72
2023/03/12 04:04:04;;;;;;;23.87;13.90;;;-3.20;99.90;;;;;;5093615;28;20220;-72
2023/03/12 04:06:31;;;;;;;22.97;14.57;;;-3.20;99.90;;;;;;5092566;28;20231;-73
2023/03/12 04:08:59;;;;;;;25.00;15.07;;;-3.20;99.90;;;;;;5093116;28;20267;-72
2023/03/12 04:11:26;;;;;;;24.20;13.53;;;-3.10;99.90;;;;;;5093091;28;20600;-72
2023/03/12 04:13:53;;;;;;;23.30;14.07;;;-3.10;99.90;;;;;;5093193;28;20544;-72
2023/03/12 04:16:19;;;;;;;21.10;13.00;;;-3.10;99.90;;;;;;5093076;28;20231;-72
2023/03/12 04:18:46;;;;;;;27.07;14.27;;;-3.10;99.90;;;;;;5093289;28;20235;-72
2023/03/12 04:21:14;;;;;;;23.50;13.27;;;-3.00;99.90;;;;;;5093359;28;20640;-72
2023/03/12 04:23:41;;;;;;;19.57;13.47;;;-3.00;99.90;;;;;;5093066;28;20198;-72
2023/03/12 04:26:09;;;;;;;21.27;13.57;;;-3.00;99.90;;;;;;5093069;28;20602;-72
2023/03/12 04:28:36;;;;;;;18.07;13.77;;;-3.00;99.90;;;;;;5092919;28;20297;-72
2023/03/12 04:31:04;;;;;;;19.23;13.50;;;-3.00;99.90;;;;;;5092940;28;20230;-72
2023/03/12 04:33:34;;;;;;;19.77;13.30;;;-3.00;99.90;;;;;;5093154;28;20231;-72
2023/03/12 04:36:00;;;;;;;21.03;12.87;;;-3.00;99.90;;;;;;5092818;28;20630;-72
2023/03/12 04:38:27;;;;;;;19.80;13.77;;;-3.00;99.90;;;;;;5092982;28;20230;-72
2023/03/12 04:41:01;;;;;;;20.17;13.53;;;-3.00;99.90;;;;;;5092941;28;20226;-72
2023/03/12 04:43:31;;;;;;;19.23;13.50;;;-3.00;99.90;;;;;;5092832;28;20644;-72
2023/03/12 04:45:58;;;;;;;20.17;13.33;;;-3.00;99.90;;;;;;5092734;28;20692;-72
2023/03/12 04:48:25;;;;;;;21.80;13.23;;;-3.00;99.90;;;;;;5092836;28;20254;-72
2023/03/12 04:50:52;;;;;;;20.77;13.53;;;-2.90;99.90;;;;;;5092854;28;20237;-72
2023/03/12 04:53:19;;;;;;;21.70;12.80;;;-2.80;99.90;;;;;;5092714;28;20196;-72
2023/03/12 04:55:45;;;;;;;19.57;13.37;;;-2.80;99.90;;;;;;5092706;28;20230;-72
2023/03/12 04:58:12;;;;;;;21.53;13.87;;;-2.80;99.90;;;;;;5092908;28;20228;-72
2023/03/12 05:00:41;;;;;;;17.43;12.73;;;-2.80;99.90;;;;;;5092892;28;20642;-72
2023/03/12 05:03:08;;;;;;;18.63;13.20;;;-2.80;99.90;;;;;;5092728;28;20230;-72
2023/03/12 05:05:35;;;;;;;18.73;13.07;;;-2.80;99.90;;;;;;5092649;28;20202;-72
2023/03/12 05:08:02;;;;;;;19.57;13.13;;;-2.80;99.90;;;;;;5092403;28;20235;-72
2023/03/12 05:10:29;;;;;;;18.93;12.93;;;-2.80;99.90;;;;;;5092415;28;20238;-72
2023/03/12 05:12:55;;;;;;;17.40;12.33;;;-2.80;99.90;;;;;;5092721;28;20351;-72
2023/03/12 05:15:22;;;;;;;16.17;12.53;;;-2.80;99.90;;;;;;5092686;28;20235;-72
2023/03/12 05:17:50;;;;;;;18.47;12.73;;;-2.70;99.90;;;;;;5092831;28;20238;-72
2023/03/12 05:20:17;;;;;;;23.87;13.53;;;-2.70;99.90;;;;;;5096573;28;20623;-72
2023/03/12 05:22:44;;;;;;;15.40;12.37;;;-2.70;99.90;;;;;;5096333;28;20198;-72
2023/03/12 05:25:11;;;;;;;20.27;12.80;;;-2.60;99.90;;;;;;5096250;28;20234;-72
2023/03/12 05:27:38;;;;;;;18.03;12.27;;;-2.60;99.90;;;;;;5096372;28;20267;-72
2023/03/12 05:30:05;;;;;;;18.93;12.90;;;-2.50;99.90;;;;;;5096350;28;20242;-72
2023/03/12 05:32:32;;;;;;;21.33;13.20;;;-2.50;99.90;;;;;;5096266;28;20226;-72
2023/03/12 05:35:00;;;;;;;19.70;13.10;;;-2.40;99.90;;;;;;5096162;28;20228;-72
2023/03/12 05:37:27;;;;;;;19.67;12.33;;;-2.30;99.90;;;;;;5095890;28;20228;-72
2023/03/12 05:39:54;;;;;;;20.90;12.47;;;-2.30;99.90;;;;;;5096248;28;20239;-72
2023/03/12 05:42:20;;;;;;;21.70;12.00;;;-2.20;99.90;;;;;;5096171;28;20224;-72
2023/03/12 05:44:47;;;;;;;20.07;12.27;;;-2.10;99.90;;;;;;5096120;28;20275;-72
2023/03/12 05:47:13;;;;;;;19.27;12.13;;;-2.10;99.90;;;;;;5096028;28;20220;-72
2023/03/12 05:49:40;;;;;;;18.27;12.27;;;-2.00;99.90;;;;;;5095884;28;20289;-72
2023/03/12 05:52:08;;;;;;;18.00;12.40;;;-1.90;99.90;;;;;;5095765;28;20248;-72
2023/03/12 05:54:35;;;;;;;15.00;11.43;;;-1.80;99.90;;;;;;5096015;28;20310;-72
2023/03/12 05:57:02;;;;;;;17.10;11.07;;;-1.70;99.90;;;;;;5095840;28;20264;-72
2023/03/12 05:59:29;;;;;;;13.67;10.63;;;-1.70;99.90;;;;;;5095646;28;20648;-72
2023/03/12 06:01:56;;;;;;;14.07;10.70;;;-1.60;99.90;;;;;;5095558;28;20561;-72
2023/03/12 06:04:22;;;;;;;14.50;10.60;;;-1.50;99.90;;;;;;5095813;28;20663;-72
2023/03/12 06:06:49;;;;;;;13.90;10.27;;;-1.40;99.90;;;;;;5095512;28;20236;-72
2023/03/12 06:09:17;;;;;;;14.60;10.13;;;-1.30;99.90;;;;;;5095429;28;20244;-72
2023/03/12 06:11:43;;;;;;;13.93;9.10;;;-1.20;99.90;;;;;;5095629;28;20265;-72
2023/03/12 06:14:10;;;;;;;14.57;9.23;;;-1.10;99.90;;;;;;5095449;28;20232;-72
2023/03/12 06:16:37;;;;;;;14.70;9.23;;;-1.10;99.90;;;;;;5095517;28;20220;-72
2023/03/12 06:19:03;;;;;;;10.87;8.67;;;-1.00;99.90;;;;;;5095321;28;20246;-72
2023/03/12 06:21:33;;;;;;;16.03;9.57;;;-1.00;99.90;;;;;;5095553;28;20302;-72
2023/03/12 06:24:00;;;;;;;14.53;8.87;;;-0.90;99.90;;;;;;5095239;28;20238;-72
2023/03/12 06:26:28;;;;;;;12.20;8.80;;;-0.90;99.90;;;;;;5095456;28;20671;-72
2023/03/12 06:28:55;;;;;;;15.90;8.77;;;-0.80;99.90;;;;;;5095025;28;20248;-72
2023/03/12 06:31:23;;;;;;;12.83;9.20;;;-0.70;99.90;;;;;;5094141;28;20208;-72
2023/03/12 06:33:49;;;;;;;11.67;8.20;;;-0.70;99.90;;;;;;5094936;28;20250;-72
2023/03/12 06:36:16;;;;;;;12.03;8.57;;;-0.60;99.90;;;;;;5095253;28;20235;-72
2023/03/12 06:38:43;;;;;;;9.13;8.10;;;-0.50;99.90;;;;;;5095085;28;20224;-72
2023/03/12 06:41:12;;;;;;;11.07;9.17;;;-0.50;99.90;;;;;;5094933;28;20192;-72
2023/03/12 06:43:40;;;;;;;10.73;8.00;;;-0.40;99.90;;;;;;5094876;28;20323;-72
2023/03/12 06:46:09;;;;;;;11.23;8.43;;;-0.30;99.90;;;;;;5094790;28;20235;-72
2023/03/12 06:48:39;;;;;;;9.73;8.57;;;-0.10;99.90;;;;;;5094591;28;20699;-72
2023/03/12 06:51:07;;;;;;;15.57;7.80;;;0.10;99.90;;;;;;5094910;28;20192;-72
2023/03/12 06:53:33;;;;;;;10.90;7.37;;;0.10;99.90;;;;;;5094502;28;20602;-72
2023/03/12 06:56:00;;;;;;;12.43;6.90;;;0.20;99.90;;;;;;5094642;28;20235;-72
2023/03/12 06:58:27;;;;;;;8.33;6.33;;;0.30;99.90;;;;;;5094764;28;20204;-72
2023/03/12 07:00:55;;;;;;;7.90;6.70;;;0.50;99.90;;;;;;5094547;28;20252;-72
2023/03/12 07:03:22;;;;;;;11.23;8.07;;;0.60;99.90;;;;;;5094594;28;20600;-72
2023/03/12 07:05:50;;;;;;;9.40;6.30;;;0.70;99.90;;;;;;5094641;28;20224;-72
2023/03/12 07:08:18;;;;;;;10.70;6.50;;;0.80;99.90;;;;;;5094187;28;20255;-73
2023/03/12 07:10:44;;;;;;;9.13;6.43;;;1.00;99.90;;;;;;5094648;28;20207;-72
2023/03/12 07:13:11;;;;;;;7.63;6.20;;;1.10;99.90;;;;;;5094132;28;20675;-73
2023/03/12 07:15:38;;;;;;;9.87;6.43;;;1.20;99.90;;;;;;5094431;28;20235;-72
2023/03/12 07:18:07;;;;;;;8.43;6.00;;;1.40;99.90;;;;;;5094279;28;20196;-72
2023/03/12 07:20:36;;;;;;;7.70;5.83;;;1.50;99.90;;;;;;5094282;28;20223;-72
2023/03/12 07:23:03;;;;;;;7.03;5.70;;;1.50;99.90;;;;;;5094120;28;20232;-72
2023/03/12 07:25:30;;;;;;;8.33;5.90;;;1.60;99.90;;;;;;5093980;28;20234;-71
2023/03/12 07:27:57;;;;;;;7.70;5.83;;;1.60;99.90;;;;;;5093814;28;20224;-75
2023/03/12 07:30:23;;;;;;;8.50;5.63;;;1.70;99.90;;;;;;5094184;28;20229;-73
2023/03/12 07:32:50;;;;;;;7.60;5.87;;;1.80;99.90;;;;;;5093967;28;20228;-73
2023/03/12 07:35:18;;;;;;;9.93;6.23;;;1.90;99.90;;;;;;5093961;28;20236;-73
2023/03/12 07:37:45;;;;;;;9.87;6.10;;;2.00;99.90;;;;;;5093906;28;20635;-74
2023/03/12 07:40:12;;;;;;;9.17;5.70;;;2.00;99.90;;;;;;5093767;28;20226;-74
2023/03/12 07:42:39;;;;;;;7.03;5.70;;;2.10;99.90;;;;;;5093437;28;20234;-73
2023/03/12 07:45:07;;;;;;;7.70;6.03;;;2.20;99.90;;;;;;5093826;28;20203;-72
2023/03/12 07:47:33;;;;;;;8.53;5.70;;;2.30;99.90;;;;;;5093617;28;20256;-73
2023/03/12 07:50:00;;;;;;;10.60;5.47;;;2.40;99.90;;;;;;5093485;28;20231;-73
2023/03/12 07:52:28;;;;;;;8.33;5.33;;;2.50;99.90;;;;;;5093560;28;20206;-73
2023/03/12 07:54:55;;;;;;;7.70;5.40;;;2.50;99.90;;;;;;5093432;28;20235;-73
2023/03/12 07:57:22;;;;;;;7.03;5.60;;;2.50;99.90;;;;;;5093562;28;20297;-73
2023/03/12 07:59:48;;;;;;;7.60;5.37;;;2.70;99.90;;;;;;5093584;28;20235;-73
2023/03/12 08:02:15;;;;;;;11.60;5.47;;;2.90;99.90;;;;;;5093526;28;20237;-73
2023/03/12 08:04:41;;;;;;;9.33;5.80;;;3.00;99.90;;;;;;5093382;28;20246;-73
2023/03/12 08:07:08;;;;;;;5.93;4.77;;;3.10;99.90;;;;;;5093558;28;20200;-73
2023/03/12 08:09:37;;;;;;;8.63;4.80;;;3.30;99.90;;;;;;5093388;28;20274;-73
2023/03/12 08:12:04;;;;;;;6.57;4.30;;;3.40;99.90;;;;;;5093500;28;20202;-73
2023/03/12 08:14:30;;;;;;;5.17;4.50;;;3.50;99.90;;;;;;5093250;28;20199;-73
2023/03/12 08:16:57;;;;;;;7.70;4.80;;;3.30;99.90;;;;;;5093535;28;20674;-73
2023/03/12 08:19:24;;;;;;;8.17;4.60;;;3.40;99.90;;;;;;5093302;28;20211;-73
2023/03/12 08:21:52;;;;;;;9.47;4.37;;;3.50;99.90;;;;;;5093534;28;20202;-73
2023/03/12 08:24:19;;;;;;;10.33;5.00;;;3.50;99.90;;;;;;5093345;28;20222;-73
2023/03/12 08:26:47;;;;;;;6.03;3.93;;;3.60;99.90;;;;;;5093144;28;20231;-74
2023/03/12 08:29:14;;;;;;;6.73;4.07;;;3.80;99.90;;;;;;5093450;28;20654;-79
2023/03/12 08:31:40;;;;;;;5.27;4.20;;;3.80;99.90;;;;;;5093417;28;20231;-71
2023/03/12 08:34:07;;;;;;;5.60;4.20;;;3.90;99.90;;;;;;5093039;28;20776;-78
2023/03/12 08:36:36;;;;;;;5.20;3.87;;;3.90;99.90;;;;;;5092982;28;20227;-75
2023/03/12 08:39:03;;;;;;;6.87;3.77;;;3.70;99.90;;;;;;5093034;28;20699;-74
2023/03/12 08:41:29;;;;;;;5.77;5.00;;;3.70;99.90;;;;;;5092952;28;20220;-74
2023/03/12 08:43:57;;;;;;;8.00;3.87;;;3.50;99.90;;;;;;5093373;28;20196;-74
2023/03/12 08:46:24;;;;;;;5.90;4.47;;;3.50;99.90;;;;;;5092987;28;20255;-75
2023/03/12 08:48:51;;;;;;;6.33;4.83;;;3.40;99.90;;;;;;5092728;28;20709;-74
2023/03/12 08:51:17;;;;;;;9.83;4.30;;;3.70;99.90;;;;;;5093025;28;20224;-77
2023/03/12 08:53:44;;;;;;;6.50;4.37;;;4.00;99.90;;;;;;5094869;28;20199;-74
2023/03/12 08:56:10;;;;;;;7.17;4.90;;;4.00;99.90;;;;;;5097208;28;20207;-74
2023/03/12 08:58:37;;;;;;;9.70;5.03;;;4.20;99.90;;;;;;5096470;28;20242;-74
2023/03/12 09:01:08;;;;;;;6.80;4.40;;;4.20;99.90;;;;;;5096483;28;20667;-77
2023/03/12 09:03:35;;;;;;;6.33;4.30;;;4.70;99.90;;;;;;5096603;28;20249;-73
2023/03/12 09:06:04;;;;;;;6.83;4.23;;;5.00;99.90;;;;;;5097232;28;20192;-72
2023/03/12 09:08:32;;;;;;;7.07;4.80;;;4.80;99.90;;;;;;5096739;28;20228;-72
2023/03/12 09:10:59;;;;;;;7.53;4.33;;;4.20;99.90;;;;;;5096742;28;20196;-71
2023/03/12 09:13:26;;;;;;;5.47;3.77;;;4.00;99.90;;;;;;5096707;28;20228;-72
2023/03/12 09:15:52;;;;;;;7.27;4.63;;;3.80;99.90;;;;;;5096658;28;20254;-72
2023/03/12 09:18:20;;;;;;;6.03;4.43;;;3.80;99.90;;;;;;5096563;28;20268;-72
2023/03/12 09:20:47;;;;;;;8.30;4.67;;;3.80;99.90;;;;;;5096797;28;20622;-72
2023/03/12 09:23:13;;;;;;;7.57;4.60;;;3.80;99.90;;;;;;5096716;28;20230;-74
2023/03/12 09:25:40;;;;;;;8.77;4.33;;;4.10;99.90;;;;;;5096751;28;20290;-73
2023/03/12 09:28:07;;;;;;;9.57;5.37;;;4.10;99.90;;;;;;5096448;28;20239;-73
2023/03/12 09:30:34;;;;;;;7.07;5.40;;;4.20;99.90;;;;;;5096234;28;20258;-73
2023/03/12 09:33:01;;;;;;;9.50;5.33;;;4.30;99.90;;;;;;5096167;28;20227;-73
2023/03/12 09:35:30;;;;;;;9.00;5.83;;;4.50;99.90;;;;;;5096380;28;20227;-73
2023/03/12 09:37:57;;;;;;;8.80;5.57;;;4.30;99.90;;;;;;5096138;28;20210;-73
2023/03/12 09:40:26;;;;;;;9.53;5.53;;;4.10;99.90;;;;;;5096054;28;20239;-73
2023/03/12 09:42:55;;;;;;;10.57;6.00;;;4.10;99.90;;;;;;5095851;28;20710;-71
2023/03/12 09:45:25;;;;;;;8.80;5.53;;;4.50;99.90;;;;;;5095925;28;20227;-73
2023/03/12 09:47:53;;;;;;;7.87;5.50;;;4.90;99.90;;;;;;5096038;28;20232;-73
2023/03/12 09:50:26;;;;;;;7.30;5.40;;;5.20;99.90;;;;;;5095923;28;20263;-71
2023/03/12 09:52:59;;;;;;;9.27;6.20;;;5.20;99.90;;;;;;5095875;28;20200;-73
2023/03/12 09:55:27;;;;;;;8.63;5.90;;;4.80;99.90;;;;;;5095778;28;20261;-72
2023/03/12 09:57:56;;;;;;;12.57;6.23;;;4.60;99.90;;;;;;5095519;28;20781;-72
2023/03/12 10:00:26;;;;;;;10.30;5.97;;;4.70;99.90;;;;;;5095727;28;20537;-73
2023/03/12 10:03:22;;;;;;;8.60;6.27;;;4.80;99.90;;;;;;5095756;28;20239;-73
2023/03/12 10:06:02;;;;;;;8.17;5.90;;;4.40;99.90;;;;;;5095354;28;20232;-74
2023/03/12 10:08:37;;;;;;;10.13;7.10;;;4.60;99.90;;;;;;5095619;28;20227;-74
2023/03/12 10:11:13;;;;;;;8.83;6.17;;;4.60;99.90;;;;;;5095332;28;20753;-73
2023/03/12 10:13:53;;;;;;;7.57;5.83;;;4.70;99.90;;;;;;5095414;28;20604;-74
2023/03/12 10:16:35;;;;;;;8.77;6.40;;;4.70;99.90;;;;;;5095405;28;20195;-73
2023/03/12 10:19:21;;;;;;;7.97;6.40;;;5.00;99.90;;;;;;5095528;28;20188;-72
2023/03/12 10:21:53;;;;;;;8.10;6.37;;;4.90;99.90;;;;;;5095217;28;20278;-74
2023/03/12 10:24:30;;;;;;;8.27;6.57;;;4.70;99.90;;;;;;5095277;28;20631;-73
2023/03/12 10:27:00;;;;;;;11.30;6.53;;;4.80;99.90;;;;;;5095148;28;20203;-73
2023/03/12 10:29:30;;;;;;;8.70;6.00;;;5.00;99.90;;;;;;5095248;28;20277;-74
2023/03/12 10:32:01;;;;;;;10.60;6.37;;;4.90;99.90;;;;;;5094995;28;20196;-74
2023/03/12 10:34:32;;;;;;;7.53;5.60;;;4.90;99.90;;;;;;5094889;28;20660;-72
2023/03/12 10:37:03;;;;;;;7.40;5.70;;;4.90;99.90;;;;;;5095082;28;20226;-72
2023/03/12 10:39:31;;;;;;;8.40;6.30;;;4.60;99.90;;;;;;5094979;28;20224;-73
2023/03/12 10:42:00;;;;;;;9.00;6.23;;;4.60;99.90;;;;;;5095044;28;20227;-74
2023/03/12 10:44:28;;;;;;;8.23;6.53;;;4.80;99.90;;;;;;5094935;28;20207;-72
2023/03/12 10:47:06;;;;;;;8.73;6.43;;;4.90;99.90;;;;;;5094687;28;20232;-73
2023/03/12 10:49:35;;;;;;;8.03;6.33;;;4.90;99.90;;;;;;5094666;28;20219;-73
2023/03/12 10:52:06;;;;;;;9.00;6.67;;;4.90;99.90;;;;;;5094847;28;20203;-73
2023/03/12 10:54:37;;;;;;;10.97;7.30;;;4.90;99.90;;;;;;5090980;28;20289;-74
2023/03/12 10:57:04;;;;;;;8.90;6.47;;;4.90;99.90;;;;;;5079368;28;20294;-74
2023/03/12 10:59:33;;;;;;;8.90;7.13;;;5.00;99.90;;;;;;5092130;28;20667;-74
2023/03/12 11:02:03;;;;;;;7.87;6.40;;;5.20;99.90;;;;;;5092342;28;20356;-73
2023/03/12 11:04:31;;;;;;;7.87;6.33;;;5.40;99.90;;;;;;5091725;28;20749;-73
2023/03/12 11:07:15;;;;;;;8.10;6.67;;;5.60;99.90;;;;;;5091248;28;20204;-72
2023/03/12 11:09:43;;;;;;;8.33;7.03;;;5.50;99.90;;;;;;5091646;28;20289;-72
2023/03/12 11:12:25;;;;;;;8.80;6.93;;;5.10;99.90;;;;;;5091952;28;20284;-73
2023/03/12 11:14:52;;;;;;;8.43;6.77;;;5.00;99.90;;;;;;5089866;28;20228;-71
2023/03/12 11:17:24;;;;;;;10.13;7.37;;;5.20;99.90;;;;;;5090935;28;20924;-71
2023/03/12 11:19:50;;;;;;;8.27;7.23;;;5.20;99.90;;;;;;5091695;28;20196;-72
2023/03/12 11:22:28;;;;;;;11.93;7.77;;;5.20;99.90;;;;;;5091747;28;20236;-72
2023/03/12 11:24:58;;;;;;;9.93;8.80;;;5.20;99.90;;;;;;5091618;28;20233;-72
2023/03/12 11:27:34;;;;;;;11.90;7.90;;;5.30;99.90;;;;;;5091191;28;20235;-72
2023/03/12 11:30:04;;;;;;;9.20;7.17;;;5.50;99.90;;;;;;5090483;28;20277;-72
2023/03/12 11:32:34;;;;;;;9.53;7.30;;;5.30;99.90;;;;;;5091626;28;20284;-72
2023/03/12 11:35:03;;;;;;;10.67;7.20;;;5.50;99.90;;;;;;5091215;28;20727;-72
2023/03/12 11:37:39;;;;;;;9.07;7.93;;;5.20;99.90;;;;;;5091198;28;20207;-71
2023/03/12 11:40:18;;;;;;;10.00;7.27;;;5.40;99.90;;;;;;5091150;28;20292;-72
2023/03/12 11:42:59;;;;;;;10.33;7.43;;;5.30;99.90;;;;;;5090840;28;20667;-73
2023/03/12 11:45:33;;;;;;;8.93;7.90;;;5.00;99.90;;;;;;5090983;28;20205;-72
2023/03/12 11:48:11;;;;;;;11.33;7.37;;;5.10;99.90;;;;;;5091021;28;20249;-72
2023/03/12 11:50:49;;;;;;;12.20;9.00;;;5.30;99.90;;;;;;5091050;28;20228;-71
2023/03/12 11:53:30;;;;;;;9.40;7.80;;;5.40;99.90;;;;;;5090675;28;20621;-71
2023/03/12 11:56:10;;;;;;;12.57;8.80;;;5.40;99.90;;;;;;5090757;28;20224;-72
2023/03/12 11:58:48;;;;;;;25.83;17.90;;;5.10;99.90;;;;;;5090774;28;20596;-72
2023/03/12 12:01:22;;;;;;;12.63;9.73;;;5.00;99.90;;;;;;5087878;28;20710;-73
2023/03/12 12:04:04;;;;;;;11.40;10.13;;;4.90;99.90;;;;;;5071976;28;20232;-72
2023/03/12 12:06:42;;;;;;;13.83;10.73;;;4.80;99.90;;;;;;5072718;28;20714;-73
2023/03/12 12:09:18;;;;;;;12.13;9.60;;;5.00;99.90;;;;;;5072530;28;20262;-75
2023/03/12 12:12:01;;;;;;;11.57;10.33;;;4.90;99.90;;;;;;5072212;28;20685;-76
2023/03/12 12:14:40;;;;;;;12.37;10.27;;;4.80;99.90;;;;;;5072081;28;20608;-74
2023/03/12 12:17:20;;;;;;;15.17;10.97;;;4.70;99.90;;;;;;5072662;28;20619;-73
2023/03/12 12:20:02;;;;;;;17.77;11.20;;;4.60;99.90;;;;;;5072990;28;20204;-73
2023/03/12 12:22:40;;;;;;;16.10;10.57;;;4.80;99.90;;;;;;5072708;28;20204;-74
2023/03/12 12:25:25;;;;;;;16.67;11.87;;;4.70;99.90;;;;;;5072708;28;20672;-73
2023/03/12 12:28:07;;;;;;;14.83;11.63;;;4.60;99.90;;;;;;5070831;28;20224;-74
2023/03/12 12:30:49;;;;;;;15.27;12.30;;;4.60;99.90;;;;;;5074984;28;20685;-74
2023/03/12 12:33:31;;;;;;;19.03;13.10;;;4.70;99.90;;;;;;5072550;28;20675;-75
2023/03/12 12:35:58;;;;;;;25.50;16.10;;;4.80;99.90;;;;;;5073090;28;20596;-74
2023/03/12 12:38:29;;;;;;;18.80;12.23;;;4.90;99.90;;;;;;5072615;28;20235;-73
2023/03/12 12:41:01;;;;;;;16.87;12.23;;;4.90;99.90;;;;;;5072652;28;20204;-73
2023/03/12 12:43:34;;;;;;;21.57;13.47;;;4.90;99.90;;;;;;5072788;28;20228;-74
2023/03/12 12:46:03;;;;;;;16.50;11.37;;;4.90;99.90;;;;;;5073415;28;20213;-74
2023/03/12 12:48:34;;;;;;;26.00;18.80;;;5.00;99.90;;;;;;5072431;28;20232;-74